sensor_id;sensor_type;location;lat;lon;timestamp;pressure;altitude;pressure_sealevel;temperature;humidity
53715;BME280;39608;55.630;37.864;2023-03-29T00:01:34;98637.72;;;6.85;59.88
53715;BME280;39608;55.630;37.864;2023-03-29T00:06:38;98631.31;;;6.81;60.00
53715;BME280;39608;55.630;37.864;2023-03-29T00:11:41;98628.25;;;6.69;60.22
53715;BME280;39608;55.630;37.864;2023-03-29T00:16:44;98614.19;;;6.72;60.27
53715;BME280;39608;55.630;37.864;2023-03-29T00:21:46;98609.97;;;6.66;60.25
53715;BME280;39608;55.630;37.864;2023-03-29T00:26:48;98616.75;;;6.63;60.46
53715;BME280;39608;55.630;37.864;2023-03-29T00:31:52;98608.13;;;6.61;60.30
53715;BME280;39608;55.630;37.864;2023-03-29T00:36:55;98603.34;;;6.58;60.57
53715;BME280;39608;55.630;37.864;2023-03-29T00:41:57;98615.78;;;6.54;60.43
53715;BME280;39608;55.630;37.864;2023-03-29T00:47:03;98611.47;;;6.53;60.57
53715;BME280;39608;55.630;37.864;2023-03-29T00:52:05;98615.03;;;6.48;60.25
53715;BME280;39608;55.630;37.864;2023-03-29T00:57:08;98605.94;;;6.44;60.63
53715;BME280;39608;55.630;37.864;2023-03-29T01:02:12;98593.00;;;6.46;60.63
53715;BME280;39608;55.630;37.864;2023-03-29T01:07:22;98598.09;;;6.48;60.88
53715;BME280;39608;55.630;37.864;2023-03-29T01:12:34;98584.91;;;6.46;60.72
53715;BME280;39608;55.630;37.864;2023-03-29T01:17:40;98591.03;;;6.52;60.69
53715;BME280;39608;55.630;37.864;2023-03-29T01:23:11;98588.78;;;6.59;60.48
53715;BME280;39608;55.630;37.864;2023-03-29T01:28:21;98570.78;;;6.55;60.41
53715;BME280;39608;55.630;37.864;2023-03-29T01:33:30;98545.31;;;6.47;60.39
53715;BME280;39608;55.630;37.864;2023-03-29T01:38:37;98550.47;;;6.43;61.08
53715;BME280;39608;55.630;37.864;2023-03-29T01:43:45;98556.09;;;6.47;60.68
53715;BME280;39608;55.630;37.864;2023-03-29T01:48:51;98555.19;;;6.51;60.78
53715;BME280;39608;55.630;37.864;2023-03-29T01:53:58;98554.25;;;6.61;60.86
53715;BME280;39608;55.630;37.864;2023-03-29T01:59:04;98537.19;;;6.85;58.87
53715;BME280;39608;55.630;37.864;2023-03-29T02:04:10;98525.34;;;6.67;60.31
53715;BME280;39608;55.630;37.864;2023-03-29T02:09:14;98523.97;;;6.70;60.41
53715;BME280;39608;55.630;37.864;2023-03-29T02:14:18;98516.09;;;6.73;60.59
53715;BME280;39608;55.630;37.864;2023-03-29T02:19:40;98508.81;;;6.74;60.56
53715;BME280;39608;55.630;37.864;2023-03-29T02:24:47;98496.66;;;6.76;60.48
53715;BME280;39608;55.630;37.864;2023-03-29T02:29:52;98515.03;;;6.88;60.49
53715;BME280;39608;55.630;37.864;2023-03-29T02:34:58;98500.16;;;6.91;60.42
53715;BME280;39608;55.630;37.864;2023-03-29T02:40:03;98488.00;;;6.93;60.52
53715;BME280;39608;55.630;37.864;2023-03-29T02:45:15;98470.81;;;6.89;60.54
53715;BME280;39608;55.630;37.864;2023-03-29T02:50:19;98482.53;;;6.98;60.03
53715;BME280;39608;55.630;37.864;2023-03-29T02:55:23;98477.44;;;6.97;60.19
53715;BME280;39608;55.630;37.864;2023-03-29T03:00:32;98476.63;;;6.96;60.17
53715;BME280;39608;55.630;37.864;2023-03-29T03:05:34;98480.13;;;6.97;60.26
53715;BME280;39608;55.630;37.864;2023-03-29T03:10:37;98466.84;;;7.00;60.09
53715;BME280;39608;55.630;37.864;2023-03-29T03:15:40;98477.84;;;7.04;60.21
53715;BME280;39608;55.630;37.864;2023-03-29T03:20:43;98485.94;;;7.04;60.03
53715;BME280;39608;55.630;37.864;2023-03-29T03:25:55;98479.72;;;7.03;59.98
53715;BME280;39608;55.630;37.864;2023-03-29T03:30:59;98481.84;;;7.07;60.12
53715;BME280;39608;55.630;37.864;2023-03-29T03:36:01;98489.63;;;7.08;60.06
53715;BME280;39608;55.630;37.864;2023-03-29T03:41:05;98489.53;;;7.13;59.95
53715;BME280;39608;55.630;37.864;2023-03-29T03:46:08;98482.75;;;7.16;59.99
53715;BME280;39608;55.630;37.864;2023-03-29T03:51:11;98480.66;;;7.13;59.93
53715;BME280;39608;55.630;37.864;2023-03-29T03:56:14;98467.09;;;7.18;59.76
53715;BME280;39608;55.630;37.864;2023-03-29T04:01:17;98464.00;;;7.25;59.88
53715;BME280;39608;55.630;37.864;2023-03-29T04:06:19;98467.50;;;7.25;59.71
53715;BME280;39608;55.630;37.864;2023-03-29T04:11:22;98467.97;;;7.27;59.61
53715;BME280;39608;55.630;37.864;2023-03-29T04:16:29;98460.00;;;7.36;59.65
53715;BME280;39608;55.630;37.864;2023-03-29T04:21:31;98458.09;;;7.36;59.42
53715;BME280;39608;55.630;37.864;2023-03-29T04:26:33;98444.53;;;7.42;59.45
53715;BME280;39608;55.630;37.864;2023-03-29T04:31:37;98444.31;;;7.52;59.44
53715;BME280;39608;55.630;37.864;2023-03-29T04:36:39;98444.78;;;7.54;59.12
53715;BME280;39608;55.630;37.864;2023-03-29T04:41:41;98449.63;;;7.57;59.03
53715;BME280;39608;55.630;37.864;2023-03-29T04:46:44;98454.09;;;7.62;59.22
53715;BME280;39608;55.630;37.864;2023-03-29T04:51:47;98438.13;;;7.65;58.87
53715;BME280;39608;55.630;37.864;2023-03-29T04:56:48;98442.78;;;7.74;58.80
53715;BME280;39608;55.630;37.864;2023-03-29T05:01:53;98447.97;;;7.84;58.69
53715;BME280;39608;55.630;37.864;2023-03-29T05:06:55;98437.09;;;7.89;58.52
53715;BME280;39608;55.630;37.864;2023-03-29T05:11:57;98440.47;;;7.95;58.22
53715;BME280;39608;55.630;37.864;2023-03-29T05:17:00;98437.22;;;8.07;58.07
53715;BME280;39608;55.630;37.864;2023-03-29T05:22:05;98441.38;;;8.13;57.89
53715;BME280;39608;55.630;37.864;2023-03-29T05:27:08;98441.38;;;8.13;57.91
53715;BME280;39608;55.630;37.864;2023-03-29T05:32:11;98436.00;;;8.13;58.05
53715;BME280;39608;55.630;37.864;2023-03-29T05:37:14;98431.66;;;8.26;57.76
53715;BME280;39608;55.630;37.864;2023-03-29T05:42:16;98442.09;;;8.41;57.38
53715;BME280;39608;55.630;37.864;2023-03-29T05:47:23;98451.28;;;8.54;57.28
53715;BME280;39608;55.630;37.864;2023-03-29T05:52:25;98447.97;;;8.57;57.13
53715;BME280;39608;55.630;37.864;2023-03-29T05:57:27;98449.72;;;8.62;56.98
53715;BME280;39608;55.630;37.864;2023-03-29T06:02:30;98436.28;;;8.70;56.96
53715;BME280;39608;55.630;37.864;2023-03-29T06:07:32;98438.81;;;8.67;56.79
53715;BME280;39608;55.630;37.864;2023-03-29T06:12:35;98423.59;;;8.80;56.49
53715;BME280;39608;55.630;37.864;2023-03-29T06:17:39;98436.69;;;8.86;56.13
53715;BME280;39608;55.630;37.864;2023-03-29T06:22:41;98437.47;;;8.87;56.07
53715;BME280;39608;55.630;37.864;2023-03-29T06:27:43;98429.91;;;8.98;55.77
53715;BME280;39608;55.630;37.864;2023-03-29T06:32:47;98430.88;;;9.02;55.96
53715;BME280;39608;55.630;37.864;2023-03-29T06:37:50;98433.91;;;9.00;56.25
53715;BME280;39608;55.630;37.864;2023-03-29T06:42:53;98420.38;;;9.00;56.08
53715;BME280;39608;55.630;37.864;2023-03-29T06:47:58;98420.38;;;9.00;56.16
53715;BME280;39608;55.630;37.864;2023-03-29T06:53:01;98432.75;;;8.93;56.55
53715;BME280;39608;55.630;37.864;2023-03-29T06:58:04;98427.50;;;8.96;55.83
53715;BME280;39608;55.630;37.864;2023-03-29T07:03:09;98428.63;;;8.95;56.12
53715;BME280;39608;55.630;37.864;2023-03-29T07:08:15;98423.97;;;8.87;57.17
53715;BME280;39608;55.630;37.864;2023-03-29T07:13:18;98420.88;;;8.71;58.13
53715;BME280;39608;55.630;37.864;2023-03-29T07:18:23;98419.13;;;8.75;58.04
53715;BME280;39608;55.630;37.864;2023-03-29T07:23:26;98421.22;;;8.78;57.58
53715;BME280;39608;55.630;37.864;2023-03-29T07:28:28;98428.09;;;8.84;57.45
53715;BME280;39608;55.630;37.864;2023-03-29T07:33:32;98429.59;;;8.99;57.66
53715;BME280;39608;55.630;37.864;2023-03-29T07:38:34;98424.06;;;9.04;57.49
53715;BME280;39608;55.630;37.864;2023-03-29T07:43:36;98422.66;;;9.07;57.45
53715;BME280;39608;55.630;37.864;2023-03-29T07:48:42;98433.19;;;9.17;57.81
53715;BME280;39608;55.630;37.864;2023-03-29T07:53:44;98414.09;;;9.22;57.41
53715;BME280;39608;55.630;37.864;2023-03-29T07:58:46;98426.88;;;9.31;57.59
53715;BME280;39608;55.630;37.864;2023-03-29T08:03:49;98429.28;;;9.41;57.49
53715;BME280;39608;55.630;37.864;2023-03-29T08:08:51;98402.56;;;9.48;57.41
53715;BME280;39608;55.630;37.864;2023-03-29T08:13:53;98408.28;;;9.47;57.87
53715;BME280;39608;55.630;37.864;2023-03-29T08:18:57;98405.13;;;9.62;57.84
53715;BME280;39608;55.630;37.864;2023-03-29T08:23:59;98404.53;;;9.74;57.28
53715;BME280;39608;55.630;37.864;2023-03-29T08:29:01;98415.38;;;9.83;56.84
53715;BME280;39608;55.630;37.864;2023-03-29T08:34:05;98421.44;;;9.97;56.58
53715;BME280;39608;55.630;37.864;2023-03-29T08:39:07;98411.88;;;9.91;56.35
53715;BME280;39608;55.630;37.864;2023-03-29T08:44:19;98414.44;;;9.96;56.99
53715;BME280;39608;55.630;37.864;2023-03-29T08:49:28;98398.28;;;9.65;58.84
53715;BME280;39608;55.630;37.864;2023-03-29T08:54:33;98379.16;;;9.35;59.42
53715;BME280;39608;55.630;37.864;2023-03-29T08:59:38;98410.97;;;9.29;60.35
53715;BME280;39608;55.630;37.864;2023-03-29T09:04:43;98409.47;;;9.23;61.10
53715;BME280;39608;55.630;37.864;2023-03-29T09:09:47;98397.88;;;9.22;61.49
53715;BME280;39608;55.630;37.864;2023-03-29T09:14:57;98393.78;;;9.42;61.82
53715;BME280;39608;55.630;37.864;2023-03-29T09:20:11;98400.16;;;9.47;61.71
53715;BME280;39608;55.630;37.864;2023-03-29T09:25:17;98411.16;;;9.41;61.97
53715;BME280;39608;55.630;37.864;2023-03-29T09:30:28;98412.25;;;9.32;62.10
53715;BME280;39608;55.630;37.864;2023-03-29T09:35:36;98411.22;;;9.19;62.71
53715;BME280;39608;55.630;37.864;2023-03-29T09:40:41;98380.59;;;9.01;63.06
53715;BME280;39608;55.630;37.864;2023-03-29T09:45:49;98405.81;;;9.19;62.86
53715;BME280;39608;55.630;37.864;2023-03-29T09:50:54;98404.53;;;9.16;62.91
53715;BME280;39608;55.630;37.864;2023-03-29T09:55:57;98407.06;;;9.13;63.42
53715;BME280;39608;55.630;37.864;2023-03-29T10:01:04;98406.44;;;9.16;63.21
53715;BME280;39608;55.630;37.864;2023-03-29T10:06:11;98430.63;;;9.12;63.75
53715;BME280;39608;55.630;37.864;2023-03-29T10:11:19;98419.00;;;9.12;64.53
53715;BME280;39608;55.630;37.864;2023-03-29T10:16:27;98417.53;;;9.05;64.59
53715;BME280;39608;55.630;37.864;2023-03-29T10:21:31;98422.13;;;9.05;64.97
53715;BME280;39608;55.630;37.864;2023-03-29T10:26:35;98418.03;;;9.07;65.14
53715;BME280;39608;55.630;37.864;2023-03-29T10:31:38;98417.81;;;8.95;65.32
53715;BME280;39608;55.630;37.864;2023-03-29T10:36:54;98403.84;;;9.02;65.63
53715;BME280;39608;55.630;37.864;2023-03-29T10:41:57;98410.50;;;8.96;65.89
53715;BME280;39608;55.630;37.864;2023-03-29T10:47:12;98405.75;;;9.01;66.06
53715;BME280;39608;55.630;37.864;2023-03-29T10:52:17;98408.44;;;8.93;66.50
53715;BME280;39608;55.630;37.864;2023-03-29T10:57:24;98402.88;;;8.98;66.75
53715;BME280;39608;55.630;37.864;2023-03-29T11:02:50;98401.63;;;9.04;66.51
53715;BME280;39608;55.630;37.864;2023-03-29T11:08:21;98387.75;;;8.97;66.84
53715;BME280;39608;55.630;37.864;2023-03-29T11:13:33;98389.66;;;8.96;67.19
53715;BME280;39608;55.630;37.864;2023-03-29T11:19:02;98396.47;;;8.94;66.53
53715;BME280;39608;55.630;37.864;2023-03-29T11:24:25;98383.72;;;8.85;67.15
53715;BME280;39608;55.630;37.864;2023-03-29T11:29:31;98379.19;;;8.63;67.50
53715;BME280;39608;55.630;37.864;2023-03-29T11:34:47;98402.28;;;8.78;67.89
53715;BME280;39608;55.630;37.864;2023-03-29T11:40:04;98411.22;;;8.79;68.01
53715;BME280;39608;55.630;37.864;2023-03-29T11:45:14;98397.81;;;8.73;67.58
53715;BME280;39608;55.630;37.864;2023-03-29T11:50:19;98404.91;;;8.61;68.17
53715;BME280;39608;55.630;37.864;2023-03-29T11:55:27;98403.97;;;8.65;67.55
53715;BME280;39608;55.630;37.864;2023-03-29T12:00:34;98413.34;;;8.59;68.66
53715;BME280;39608;55.630;37.864;2023-03-29T12:05:41;98413.44;;;8.54;68.37
53715;BME280;39608;55.630;37.864;2023-03-29T12:10:46;98423.75;;;8.75;66.05
53715;BME280;39608;55.630;37.864;2023-03-29T12:15:54;98408.66;;;8.51;68.66
53715;BME280;39608;55.630;37.864;2023-03-29T12:21:01;98403.28;;;8.51;68.68
53715;BME280;39608;55.630;37.864;2023-03-29T12:26:14;98415.72;;;8.61;68.78
53715;BME280;39608;55.630;37.864;2023-03-29T12:31:22;98410.63;;;8.59;68.77
53715;BME280;39608;55.630;37.864;2023-03-29T12:42:04;98419.66;;;8.54;68.93
53715;BME280;39608;55.630;37.864;2023-03-29T12:47:16;98417.09;;;8.49;69.38
53715;BME280;39608;55.630;37.864;2023-03-29T12:52:24;98431.78;;;8.43;69.09
53715;BME280;39608;55.630;37.864;2023-03-29T12:57:39;98424.22;;;8.45;68.88
53715;BME280;39608;55.630;37.864;2023-03-29T13:02:42;98414.41;;;8.35;69.21
53715;BME280;39608;55.630;37.864;2023-03-29T13:07:45;98428.28;;;8.43;68.98
53715;BME280;39608;55.630;37.864;2023-03-29T13:12:49;98442.00;;;8.46;69.16
53715;BME280;39608;55.630;37.864;2023-03-29T13:17:57;98431.50;;;8.45;68.88
53715;BME280;39608;55.630;37.864;2023-03-29T13:23:17;98430.47;;;8.40;68.63
53715;BME280;39608;55.630;37.864;2023-03-29T13:28:31;98434.44;;;8.34;69.07
53715;BME280;39608;55.630;37.864;2023-03-29T13:33:43;98440.63;;;8.35;69.31
53715;BME280;39608;55.630;37.864;2023-03-29T13:38:55;98442.47;;;8.26;69.13
53715;BME280;39608;55.630;37.864;2023-03-29T13:44:04;98449.66;;;8.30;69.00
53715;BME280;39608;55.630;37.864;2023-03-29T13:49:20;98446.47;;;8.28;69.16
53715;BME280;39608;55.630;37.864;2023-03-29T13:54:26;98471.75;;;8.32;69.13
53715;BME280;39608;55.630;37.864;2023-03-29T13:59:36;98461.44;;;8.34;68.99
53715;BME280;39608;55.630;37.864;2023-03-29T14:04:43;98449.59;;;8.21;69.20
53715;BME280;39608;55.630;37.864;2023-03-29T14:09:51;98465.06;;;8.30;69.25
53715;BME280;39608;55.630;37.864;2023-03-29T14:14:59;98477.34;;;8.36;69.23
53715;BME280;39608;55.630;37.864;2023-03-29T14:20:05;98457.03;;;8.38;69.39
53715;BME280;39608;55.630;37.864;2023-03-29T14:25:13;98470.63;;;8.47;69.32
53715;BME280;39608;55.630;37.864;2023-03-29T14:30:20;98473.22;;;8.52;69.05
53715;BME280;39608;55.630;37.864;2023-03-29T14:35:28;98464.06;;;8.62;68.72
53715;BME280;39608;55.630;37.864;2023-03-29T14:40:32;98473.88;;;8.58;68.57
53715;BME280;39608;55.630;37.864;2023-03-29T14:45:36;98491.19;;;8.57;68.70
53715;BME280;39608;55.630;37.864;2023-03-29T14:50:40;98507.63;;;8.61;68.79
53715;BME280;39608;55.630;37.864;2023-03-29T14:55:45;98502.22;;;8.61;68.66
53715;BME280;39608;55.630;37.864;2023-03-29T15:00:51;98513.81;;;8.61;68.88
53715;BME280;39608;55.630;37.864;2023-03-29T15:05:56;98516.19;;;8.63;69.24
53715;BME280;39608;55.630;37.864;2023-03-29T15:10:59;98518.53;;;8.55;68.81
53715;BME280;39608;55.630;37.864;2023-03-29T15:16:04;98509.44;;;8.51;68.86
53715;BME280;39608;55.630;37.864;2023-03-29T15:21:08;98500.25;;;8.38;69.20
53715;BME280;39608;55.630;37.864;2023-03-29T15:26:13;98524.13;;;8.59;69.07
53715;BME280;39608;55.630;37.864;2023-03-29T15:31:18;98517.81;;;8.64;68.98
53715;BME280;39608;55.630;37.864;2023-03-29T15:36:22;98532.31;;;8.90;67.10
53715;BME280;39608;55.630;37.864;2023-03-29T15:41:26;98525.84;;;8.55;68.56
53715;BME280;39608;55.630;37.864;2023-03-29T15:46:29;98540.22;;;8.64;68.88
53715;BME280;39608;55.630;37.864;2023-03-29T15:51:32;98548.25;;;8.55;69.25
53715;BME280;39608;55.630;37.864;2023-03-29T15:56:47;98553.25;;;8.62;69.46
53715;BME280;39608;55.630;37.864;2023-03-29T16:01:52;98561.28;;;8.53;69.64
53715;BME280;39608;55.630;37.864;2023-03-29T16:06:57;98571.78;;;8.55;69.30
53715;BME280;39608;55.630;37.864;2023-03-29T16:12:00;98570.88;;;8.60;69.03
53715;BME280;39608;55.630;37.864;2023-03-29T16:17:04;98567.25;;;8.64;69.37
53715;BME280;39608;55.630;37.864;2023-03-29T16:22:06;98572.94;;;8.63;69.18
53715;BME280;39608;55.630;37.864;2023-03-29T16:27:08;98581.06;;;8.63;69.24
53715;BME280;39608;55.630;37.864;2023-03-29T16:32:15;98579.47;;;8.62;69.47
53715;BME280;39608;55.630;37.864;2023-03-29T16:37:18;98591.09;;;8.62;69.37
53715;BME280;39608;55.630;37.864;2023-03-29T16:42:20;98591.38;;;8.61;69.52
53715;BME280;39608;55.630;37.864;2023-03-29T16:47:23;98586.56;;;8.57;69.00
53715;BME280;39608;55.630;37.864;2023-03-29T16:52:26;98594.56;;;8.63;69.33
53715;BME280;39608;55.630;37.864;2023-03-29T16:57:28;98596.50;;;8.62;69.18
53715;BME280;39608;55.630;37.864;2023-03-29T17:02:31;98612.09;;;8.65;69.50
53715;BME280;39608;55.630;37.864;2023-03-29T17:07:34;98610.47;;;8.64;69.13
53715;BME280;39608;55.630;37.864;2023-03-29T17:12:36;98608.91;;;8.63;69.41
53715;BME280;39608;55.630;37.864;2023-03-29T17:17:39;98620.41;;;8.69;69.32
53715;BME280;39608;55.630;37.864;2023-03-29T17:22:41;98604.28;;;8.64;69.13
53715;BME280;39608;55.630;37.864;2023-03-29T17:27:43;98609.38;;;8.65;69.22
53715;BME280;39608;55.630;37.864;2023-03-29T17:32:48;98600.91;;;8.58;69.33
53715;BME280;39608;55.630;37.864;2023-03-29T17:37:51;98610.63;;;8.59;69.32
53715;BME280;39608;55.630;37.864;2023-03-29T17:42:54;98623.00;;;8.60;69.45
53715;BME280;39608;55.630;37.864;2023-03-29T17:47:57;98619.00;;;8.57;69.72
53715;BME280;39608;55.630;37.864;2023-03-29T17:52:59;98615.13;;;8.50;69.65
53715;BME280;39608;55.630;37.864;2023-03-29T17:58:01;98615.63;;;8.38;70.01
53715;BME280;39608;55.630;37.864;2023-03-29T18:03:05;98625.00;;;8.40;69.91
53715;BME280;39608;55.630;37.864;2023-03-29T18:08:08;98630.94;;;8.43;69.96
53715;BME280;39608;55.630;37.864;2023-03-29T18:13:10;98628.22;;;8.43;69.91
53715;BME280;39608;55.630;37.864;2023-03-29T18:18:15;98638.16;;;8.47;70.02
53715;BME280;39608;55.630;37.864;2023-03-29T18:23:17;98647.03;;;8.48;69.94
53715;BME280;39608;55.630;37.864;2023-03-29T18:28:19;98647.56;;;8.50;69.81
53715;BME280;39608;55.630;37.864;2023-03-29T18:33:25;98647.47;;;8.55;70.14
53715;BME280;39608;55.630;37.864;2023-03-29T18:38:29;98644.84;;;8.50;69.86
53715;BME280;39608;55.630;37.864;2023-03-29T18:43:34;98640.44;;;8.54;69.91
53715;BME280;39608;55.630;37.864;2023-03-29T18:48:40;98645.84;;;8.54;69.74
53715;BME280;39608;55.630;37.864;2023-03-29T18:53:42;98647.47;;;8.55;69.83
53715;BME280;39608;55.630;37.864;2023-03-29T18:58:44;98660.34;;;8.58;69.58
53715;BME280;39608;55.630;37.864;2023-03-29T19:03:47;98663.53;;;8.60;69.96
53715;BME280;39608;55.630;37.864;2023-03-29T19:08:50;98658.75;;;8.57;69.97
53715;BME280;39608;55.630;37.864;2023-03-29T19:13:53;98658.97;;;8.61;69.92
53715;BME280;39608;55.630;37.864;2023-03-29T19:18:57;98670.25;;;8.63;69.96
53715;BME280;39608;55.630;37.864;2023-03-29T19:23:59;98662.16;;;8.63;70.02
53715;BME280;39608;55.630;37.864;2023-03-29T19:29:04;98668.66;;;8.62;69.81
53715;BME280;39608;55.630;37.864;2023-03-29T19:34:08;98669.94;;;8.64;69.90
53715;BME280;39608;55.630;37.864;2023-03-29T19:39:10;98679.28;;;8.58;69.78
53715;BME280;39608;55.630;37.864;2023-03-29T19:44:12;98676.88;;;8.56;70.15
53715;BME280;39608;55.630;37.864;2023-03-29T19:49:16;98671.16;;;8.58;69.94
53715;BME280;39608;55.630;37.864;2023-03-29T19:54:18;98683.06;;;8.57;70.13
53715;BME280;39608;55.630;37.864;2023-03-29T19:59:20;98676.38;;;8.54;69.83
53715;BME280;39608;55.630;37.864;2023-03-29T20:04:24;98678.19;;;8.59;70.04
53715;BME280;39608;55.630;37.864;2023-03-29T20:09:28;98680.97;;;8.54;70.00
53715;BME280;39608;55.630;37.864;2023-03-29T20:14:30;98679.38;;;8.53;69.94
53715;BME280;39608;55.630;37.864;2023-03-29T20:19:35;98677.19;;;8.55;69.86
53715;BME280;39608;55.630;37.864;2023-03-29T20:24:37;98678.75;;;8.42;70.04
53715;BME280;39608;55.630;37.864;2023-03-29T20:29:39;98681.38;;;8.47;70.26
53715;BME280;39608;55.630;37.864;2023-03-29T20:34:42;98682.38;;;8.51;70.08
53715;BME280;39608;55.630;37.864;2023-03-29T20:39:44;98683.78;;;8.49;69.89
53715;BME280;39608;55.630;37.864;2023-03-29T20:44:46;98679.47;;;8.48;70.00
53715;BME280;39608;55.630;37.864;2023-03-29T20:49:51;98672.19;;;8.48;70.36
53715;BME280;39608;55.630;37.864;2023-03-29T20:54:53;98683.34;;;8.42;70.38
53715;BME280;39608;55.630;37.864;2023-03-29T20:59:55;98688.56;;;8.38;70.27
53715;BME280;39608;55.630;37.864;2023-03-29T21:05:00;98697.16;;;8.40;70.62
53715;BME280;39608;55.630;37.864;2023-03-29T21:10:02;98707.75;;;8.36;70.74
53715;BME280;39608;55.630;37.864;2023-03-29T21:15:05;98702.97;;;8.33;70.88
53715;BME280;39608;55.630;37.864;2023-03-29T21:20:09;98698.88;;;8.36;70.93
53715;BME280;39608;55.630;37.864;2023-03-29T21:25:12;98695.47;;;8.30;71.31
53715;BME280;39608;55.630;37.864;2023-03-29T21:30:15;98698.94;;;8.31;71.20
53715;BME280;39608;55.630;37.864;2023-03-29T21:35:18;98702.16;;;8.33;71.09
53715;BME280;39608;55.630;37.864;2023-03-29T21:40:21;98706.34;;;8.25;70.92
53715;BME280;39608;55.630;37.864;2023-03-29T21:45:22;98697.75;;;8.23;71.23
53715;BME280;39608;55.630;37.864;2023-03-29T21:50:26;98698.78;;;8.27;71.36
53715;BME280;39608;55.630;37.864;2023-03-29T21:55:28;98697.94;;;8.27;71.43
53715;BME280;39608;55.630;37.864;2023-03-29T22:00:30;98697.16;;;8.26;71.38
53715;BME280;39608;55.630;37.864;2023-03-29T22:05:33;98703.66;;;8.25;71.05
53715;BME280;39608;55.630;37.864;2023-03-29T22:10:36;98701.56;;;8.22;71.35
53715;BME280;39608;55.630;37.864;2023-03-29T22:15:40;98688.06;;;8.22;71.09
53715;BME280;39608;55.630;37.864;2023-03-29T22:20:44;98699.38;;;8.24;71.48
53715;BME280;39608;55.630;37.864;2023-03-29T22:25:47;98695.16;;;8.18;71.30
53715;BME280;39608;55.630;37.864;2023-03-29T22:30:49;98703.78;;;8.20;71.72
53715;BME280;39608;55.630;37.864;2023-03-29T22:35:53;98708.25;;;8.25;71.69
53715;BME280;39608;55.630;37.864;2023-03-29T22:40:55;98714.06;;;8.18;71.72
53715;BME280;39608;55.630;37.864;2023-03-29T22:45:57;98706.25;;;8.16;71.81
53715;BME280;39608;55.630;37.864;2023-03-29T22:51:01;98693.53;;;8.17;71.97
53715;BME280;39608;55.630;37.864;2023-03-29T22:56:03;98701.94;;;8.15;71.78
53715;BME280;39608;55.630;37.864;2023-03-29T23:01:06;98697.84;;;8.18;71.92
53715;BME280;39608;55.630;37.864;2023-03-29T23:06:09;98696.38;;;8.26;71.96
53715;BME280;39608;55.630;37.864;2023-03-29T23:11:11;98698.56;;;8.23;71.98
53715;BME280;39608;55.630;37.864;2023-03-29T23:16:13;98687.16;;;8.27;72.08
53715;BME280;39608;55.630;37.864;2023-03-29T23:21:17;98696.06;;;8.27;72.06
53715;BME280;39608;55.630;37.864;2023-03-29T23:26:19;98691.28;;;8.24;71.87
53715;BME280;39608;55.630;37.864;2023-03-29T23:31:22;98684.88;;;8.20;71.80
53715;BME280;39608;55.630;37.864;2023-03-29T23:36:26;98686.44;;;8.21;71.72
53715;BME280;39608;55.630;37.864;2023-03-29T23:41:30;98679.78;;;8.18;71.80
53715;BME280;39608;55.630;37.864;2023-03-29T23:46:33;98680.25;;;8.20;71.60
53715;BME280;39608;55.630;37.864;2023-03-29T23:51:37;98684.75;;;8.25;71.87
53715;BME280;39608;55.630;37.864;2023-03-29T23:56:39;98675.34;;;8.22;71.38
